Time;durP1;ratioP1;P1;durP2;ratioP2;P2;SDS_P1;SDS_P2;PMS_P1;PMS_P2;Temp;Humidity;BMP_temperature;BMP_pressure;BME280_temperature;BME280_humidity;BME280_pressure;Samples;Min_cycle;Max_cycle;Signal;HPM_P1;HPM_P2
2022/08/03 00:01:00;;;;;;;9.90;4.67;;;;;;;17.45;63.53;100386.28;30024820;29;97447;-58
2022/08/03 00:16:00;;;;;;;8.85;4.45;;;;;;;17.31;64.31;100392.75;30020198;29;97473;-58
2022/08/03 00:31:01;;;;;;;6.47;4.32;;;;;;;17.11;65.13;100390.91;30022654;29;97645;-58
2022/08/03 00:46:01;;;;;;;7.13;4.20;;;;;;;16.90;66.00;100384.72;30020684;29;96814;-58
2022/08/03 01:01:05;;;;;;;8.63;4.75;;;;;;;16.76;66.89;100383.03;30020210;29;97536;-58
2022/08/03 01:16:18;;;;;;;9.43;5.33;;;;;;;16.64;67.36;100380.13;30017907;29;96995;-59
2022/08/03 01:31:22;;;;;;;6.67;4.13;;;;;;;16.45;68.03;100368.31;30035733;29;97078;-59
2022/08/03 01:46:25;;;;;;;8.30;4.30;;;;;;;16.28;68.88;100369.72;30030880;29;97617;-59
2022/08/03 02:01:26;;;;;;;8.17;4.60;;;;;;;16.04;69.68;100359.31;30034094;29;96942;-59
2022/08/03 02:16:28;;;;;;;9.80;5.17;;;;;;;15.98;70.37;100352.06;30030706;29;97271;-58
2022/08/03 02:31:33;;;;;;;13.20;5.77;;;;;;;15.84;70.86;100355.72;30031655;29;96717;-59
2022/08/03 02:46:38;;;;;;;8.07;5.20;;;;;;;15.75;71.60;100349.69;30029774;29;96779;-59
2022/08/03 03:01:39;;;;;;;10.47;6.00;;;;;;;15.82;71.88;100358.63;30028524;29;97015;-59
2022/08/03 03:16:41;;;;;;;8.20;5.77;;;;;;;15.85;72.13;100363.59;30026416;29;97065;-60
2022/08/03 03:31:41;;;;;;;7.13;6.17;;;;;;;15.87;72.68;100372.28;30025659;29;96855;-60
2022/08/03 03:46:42;;;;;;;11.85;6.25;;;;;;;15.97;72.83;100360.34;30023765;29;96837;-59
2022/08/03 04:01:43;;;;;;;9.10;6.95;;;;;;;16.13;72.77;100378.78;30023733;29;96776;-59
2022/08/03 04:16:50;;;;;;;8.65;6.47;;;;;;;16.22;72.59;100377.59;30022453;29;96704;-58
2022/08/03 04:31:53;;;;;;;15.30;7.87;;;;;;;16.21;72.41;100385.81;30021237;29;96829;-60
2022/08/03 04:46:55;;;;;;;15.20;7.13;;;;;;;16.28;72.88;100399.28;30019397;29;96741;-59
2022/08/03 05:01:56;;;;;;;36.03;9.80;;;;;;;16.48;72.92;100400.16;30036199;29;96801;-59
2022/08/03 05:16:56;;;;;;;15.70;7.30;;;;;;;16.63;72.80;100386.53;30037875;29;97422;-58
2022/08/03 05:31:56;;;;;;;10.32;7.60;;;;;;;17.03;72.93;100389.28;30037618;29;96760;-59
2022/08/03 05:46:58;;;;;;;16.50;6.50;;;;;;;17.55;72.69;100404.72;30035467;29;97600;-59
2022/08/03 06:01:58;;;;;;;8.47;6.50;;;;;;;18.41;71.56;100414.34;30032652;29;96767;-59
2022/08/03 06:16:58;;;;;;;10.00;5.10;;;;;;;19.26;70.34;100413.09;30030908;29;114641;-59
2022/08/03 06:32:00;;;;;;;;;;;;;;;20.34;68.50;100417.28;30031728;29;98343;-59
2022/08/03 06:47:00;;;;;;;6.72;3.72;;;;;;;21.13;66.64;100423.41;30029689;29;97474;-59
2022/08/03 07:02:00;;;;;;;8.23;3.83;;;;;;;22.43;63.27;100430.50;30027825;29;96795;-59
2022/08/03 07:17:01;;;;;;;5.20;3.53;;;;;;;23.33;60.28;100413.50;30026458;29;96775;-59
2022/08/03 07:32:02;;;;;;;5.32;3.10;;;;;;;24.56;57.39;100418.81;30026197;29;97424;-59
2022/08/03 07:47:03;;;;;;;4.20;2.83;;;;;;;25.36;54.26;100409.91;30024204;29;96855;-60
2022/08/03 08:02:05;;;;;;;3.38;2.40;;;;;;;26.47;49.36;100412.53;30022302;29;96868;-60
2022/08/03 08:17:05;;;;;;;5.30;2.17;;;;;;;27.42;45.72;100410.34;30021191;29;96904;-60
2022/08/03 08:32:06;;;;;;;2.92;2.40;;;;;;;28.41;41.84;100417.03;30015177;29;96920;-59
2022/08/03 08:47:07;;;;;;;2.42;1.85;;;;;;;28.62;39.98;100415.75;30013582;29;97193;-59
2022/08/03 09:02:07;;;;;;;4.50;1.90;;;;;;;29.33;37.99;100413.53;30013767;29;96792;-59
2022/08/03 09:17:08;;;;;;;3.50;1.83;;;;;;;29.91;35.96;100403.56;30017943;29;97744;-59
2022/08/03 09:32:09;;;;;;;2.25;1.88;;;;;;;30.69;34.88;100386.75;30018097;29;96868;-59
2022/08/03 09:47:14;;;;;;;4.73;2.33;;;;;;;31.44;33.24;100389.53;30032123;29;97710;-58
2022/08/03 10:02:21;;;;;;;4.67;1.90;;;;;;;31.46;32.38;100377.09;30031208;29;97875;-60
2022/08/03 10:17:22;;;;;;;2.37;1.70;;;;;;;32.03;31.64;100368.44;30022074;29;97401;-61
2022/08/03 10:32:52;;;;;;;6.75;1.92;;;;;;;31.85;30.93;100350.13;30021590;29;97361;-59
2022/08/03 10:47:55;;;;;;;1.70;1.57;;;;;;;32.52;30.11;100356.84;30010282;29;96981;-60
2022/08/03 11:03:15;;;;;;;3.07;1.70;;;;;;;32.98;29.66;100355.66;30019447;29;97532;-61
2022/08/03 11:18:15;;;;;;;4.63;1.80;;;;;;;33.43;28.36;100343.69;30099339;29;97570;-59
2022/08/03 11:33:29;;;;;;;2.53;1.50;;;;;;;34.47;26.55;100339.38;30140421;29;99852;-60
2022/08/03 11:48:33;;;;;;;4.07;1.80;;;;;;;33.52;27.09;100322.44;30138279;28;97606;-60
2022/08/03 12:03:35;;;;;;;2.27;1.40;;;;;;;35.69;24.61;100309.53;30137387;28;97306;-59
2022/08/03 12:18:35;;;;;;;2.23;1.53;;;;;;;35.45;23.70;100304.69;30137270;29;96774;-61
2022/08/03 12:33:54;;;;;;;3.22;1.73;;;;;;;35.23;24.17;100292.72;29999577;28;97452;-60
2022/08/03 12:49:01;;;;;;;4.00;2.17;;;;;;;34.60;24.54;100286.94;30019196;29;96817;-59
2022/08/03 13:04:01;;;;;;;3.20;1.77;;;;;;;34.21;24.76;100284.91;30058733;29;97408;-61
2022/08/03 13:19:01;;;;;;;5.28;1.50;;;;;;;34.51;24.58;100279.50;30143740;29;97150;-59
2022/08/03 13:34:02;;;;;;;4.53;1.52;;;;;;;33.51;25.04;100267.53;30150953;28;97104;-58
2022/08/03 13:49:02;;;;;;;4.72;1.65;;;;;;;33.68;24.85;100272.25;30050380;28;97215;-59
2022/08/03 14:04:03;;;;;;;2.55;1.73;;;;;;;32.83;25.59;100257.59;30023408;29;96837;-59
2022/08/03 14:19:04;;;;;;;3.60;1.40;;;;;;;33.22;25.40;100247.63;30021168;29;96881;-59
2022/08/03 14:34:05;;;;;;;4.40;1.60;;;;;;;32.67;25.50;100243.41;30094713;29;97487;-59
2022/08/03 14:49:05;;;;;;;6.53;2.30;;;;;;;31.96;26.20;100232.25;30144553;28;96728;-59
2022/08/03 15:04:05;;;;;;;3.53;1.60;;;;;;;31.38;26.93;100216.25;30144409;28;96948;-59
2022/08/03 15:19:06;;;;;;;2.70;1.50;;;;;;;31.23;26.33;100211.06;30142500;28;98065;-59
2022/08/03 15:34:06;;;;;;;4.20;1.80;;;;;;;31.33;26.74;100197.09;30141122;28;97433;-59
2022/08/03 15:49:06;;;;;;;2.63;1.48;;;;;;;31.00;26.85;100200.00;30064439;28;97632;-63
2022/08/03 16:04:07;;;;;;;2.58;1.83;;;;;;;31.07;27.66;100183.09;30019115;29;97955;-61
2022/08/03 16:19:07;;;;;;;3.35;1.67;;;;;;;30.77;27.64;100184.50;30018342;29;96751;-59
2022/08/03 16:34:07;;;;;;;7.57;2.05;;;;;;;30.30;28.67;100170.81;30006493;29;97513;-59
2022/08/03 16:49:08;;;;;;;6.18;1.90;;;;;;;30.23;29.29;100162.97;30016470;29;106768;-58
2022/08/03 17:04:09;;;;;;;3.90;1.90;;;;;;;30.08;29.69;100177.00;30125416;28;97023;-59
2022/08/03 17:19:11;;;;;;;4.33;2.03;;;;;;;29.79;29.95;100183.50;30131224;28;97494;-58
2022/08/03 17:34:12;;;;;;;4.30;2.23;;;;;;;29.54;30.72;100188.28;30130278;28;97143;-60
2022/08/03 17:49:12;;;;;;;6.80;2.70;;;;;;;29.28;31.44;100196.03;30081738;28;97434;-58
2022/08/03 18:04:20;;;;;;;3.00;2.30;;;;;;;28.87;33.13;100205.63;30016809;29;97598;-62
2022/08/03 18:19:21;;;;;;;6.43;2.83;;;;;;;28.32;34.75;100214.94;30022902;29;97203;-60
2022/08/03 18:34:23;;;;;;;12.07;3.17;;;;;;;27.76;35.99;100224.41;30022679;29;97578;-60
2022/08/03 18:49:32;;;;;;;6.57;3.40;;;;;;;27.30;37.22;100239.16;30070111;29;97537;-59
2022/08/03 19:04:45;;;;;;;7.50;3.27;;;;;;;26.88;38.50;100236.88;30027665;29;97080;-59
2022/08/03 19:19:49;;;;;;;5.40;3.40;;;;;;;26.52;39.31;100243.19;30026482;29;98545;-60
2022/08/03 19:34:50;;;;;;;5.80;3.43;;;;;;;26.18;40.01;100236.38;30025332;29;97513;-60
2022/08/03 19:49:55;;;;;;;6.87;4.00;;;;;;;25.91;40.58;100244.81;30025078;29;96845;-61
2022/08/03 20:04:56;;;;;;;6.77;3.50;;;;;;;25.56;41.03;100257.31;30024954;29;96747;-60
2022/08/03 20:19:58;;;;;;;5.90;4.17;;;;;;;25.14;41.42;100250.06;30023668;29;97581;-60
2022/08/03 20:34:59;;;;;;;5.63;3.80;;;;;;;24.87;41.71;100261.91;30022632;29;96888;-61
2022/08/03 20:50:01;;;;;;;6.10;4.15;;;;;;;24.20;42.57;100272.28;30015665;29;97914;-59
2022/08/03 21:05:02;;;;;;;13.20;5.60;;;;;;;23.59;43.83;100269.75;30017107;29;96816;-59
2022/08/03 21:20:08;;;;;;;8.93;5.93;;;;;;;23.05;45.27;100260.38;30017243;29;97276;-60
2022/08/03 21:35:09;;;;;;;8.37;5.53;;;;;;;22.74;46.24;100261.84;30022500;29;96738;-59
2022/08/03 21:50:11;;;;;;;10.47;5.03;;;;;;;22.54;47.26;100276.78;30034952;29;96722;-60
2022/08/03 22:05:15;;;;;;;11.83;6.13;;;;;;;22.47;47.96;100270.69;30035096;29;97209;-60
2022/08/03 22:20:16;;;;;;;8.87;5.10;;;;;;;22.42;47.99;100270.63;30033235;29;96713;-59
2022/08/03 22:35:17;;;;;;;8.02;5.53;;;;;;;21.98;48.99;100269.31;30031926;29;96760;-59
2022/08/03 22:50:17;;;;;;;11.77;5.70;;;;;;;21.61;49.77;100280.56;30030465;29;96634;-59
2022/08/03 23:05:28;;;;;;;7.77;5.47;;;;;;;21.43;50.88;100268.00;30030411;29;97199;-59
2022/08/03 23:20:29;;;;;;;7.00;4.80;;;;;;;21.63;50.81;100270.28;30028719;29;96720;-59
2022/08/03 23:50:55;;;;;;;8.60;5.67;;;;;;;20.61;52.95;100282.41;30023188;29;97619;-59
